Time;durP1;ratioP1;P1;durP2;ratioP2;P2;SDS_P1;SDS_P2;PMS_P1;PMS_P2;Temp;Humidity;BMP_temperature;BMP_pressure;BME280_temperature;BME280_humidity;BME280_pressure;Samples;Min_cycle;Max_cycle;Signal;HPM_P1;HPM_P2
2021/10/26 00:02:44;;;;;;;6.47;5.00;;;;;;;;;;10357870;28;20489;-64
2021/10/26 00:07:43;;;;;;;6.47;5.60;;;;;;;;;;10358758;28;20071;-63
2021/10/26 00:12:42;;;;;;;8.23;5.78;;;;;;;;;;10359341;28;20036;-63
2021/10/26 00:17:41;;;;;;;6.65;5.72;;;;;;;;;;10356523;28;20079;-63
2021/10/26 00:22:39;;;;;;;6.07;5.47;;;;;;;;;;10359126;28;20517;-64
2021/10/26 00:27:37;;;;;;;8.38;5.75;;;;;;;;;;10358637;28;20075;-63
2021/10/26 00:32:37;;;;;;;8.95;5.55;;;;;;;;;;10355333;28;20067;-63
2021/10/26 00:37:36;;;;;;;12.65;6.75;;;;;;;;;;10355901;28;20071;-62
2021/10/26 00:42:34;;;;;;;10.00;7.70;;;;;;;;;;10354676;28;20071;-63
2021/10/26 00:47:33;;;;;;;9.65;7.45;;;;;;;;;;10355672;28;20075;-63
2021/10/26 00:52:33;;;;;;;14.75;8.05;;;;;;;;;;10357145;28;20064;-63
2021/10/26 00:57:31;;;;;;;13.32;8.93;;;;;;;;;;10354619;28;20071;-63
2021/10/26 01:02:35;;;;;;;11.65;8.50;;;;;;;;;;10353570;28;20595;-63
2021/10/26 01:07:36;;;;;;;10.23;7.80;;;;;;;;;;10338277;28;20445;-63
2021/10/26 01:12:36;;;;;;;10.30;8.20;;;;;;;;;;10354607;28;20059;-63
2021/10/26 01:17:34;;;;;;;9.68;8.65;;;;;;;;;;10354657;28;20055;-62
2021/10/26 01:22:39;;;;;;;10.05;8.18;;;;;;;;;;10353667;28;20071;-63
2021/10/26 01:27:41;;;;;;;22.42;13.13;;;;;;;;;;10355202;28;20086;-63
2021/10/26 01:32:39;;;;;;;16.45;11.38;;;;;;;;;;10354767;28;20055;-63
2021/10/26 01:38:06;;;;;;;15.10;11.35;;;;;;;;;;10352240;28;20080;-63
2021/10/26 01:43:06;;;;;;;17.73;12.85;;;;;;;;;;10354897;28;20139;-62
2021/10/26 01:48:05;;;;;;;18.38;12.07;;;;;;;;;;10351208;28;20082;-63
2021/10/26 01:53:06;;;;;;;21.58;12.02;;;;;;;;;;10351551;28;20047;-64
2021/10/26 01:58:04;;;;;;;16.75;11.18;;;;;;;;;;10353109;28;20062;-63
2021/10/26 02:03:22;;;;;;;16.05;11.90;;;;;;;;;;10363358;28;20072;-63
2021/10/26 02:08:24;;;;;;;17.63;10.95;;;;;;;;;;10362317;28;20506;-64
2021/10/26 02:13:22;;;;;;;18.25;12.15;;;;;;;;;;10364431;28;20063;-63
2021/10/26 02:18:24;;;;;;;19.08;12.27;;;;;;;;;;10362406;28;20051;-64
2021/10/26 02:23:27;;;;;;;19.25;12.07;;;;;;;;;;10362002;28;20084;-63
2021/10/26 02:28:26;;;;;;;17.88;12.07;;;;;;;;;;10361654;28;20472;-63
2021/10/26 02:33:25;;;;;;;17.52;12.10;;;;;;;;;;10361264;28;20040;-64
2021/10/26 02:38:23;;;;;;;14.27;11.73;;;;;;;;;;10361258;28;20048;-64
2021/10/26 02:43:23;;;;;;;19.63;12.32;;;;;;;;;;10362891;28;20060;-64
2021/10/26 02:48:22;;;;;;;13.77;10.93;;;;;;;;;;10360981;28;20082;-64
2021/10/26 02:53:21;;;;;;;13.02;11.40;;;;;;;;;;10359762;28;20044;-64
2021/10/26 02:58:20;;;;;;;17.58;12.20;;;;;;;;;;10360621;28;20063;-63
2021/10/26 03:03:19;;;;;;;33.75;23.00;;;;;;;;;;10362337;28;20071;-63
2021/10/26 03:08:19;;;;;;;22.50;12.68;;;;;;;;;;10360046;28;20040;-63
2021/10/26 03:13:18;;;;;;;11.45;8.60;;;;;;;;;;10359871;28;20437;-63
2021/10/26 03:18:17;;;;;;;14.27;8.68;;;;;;;;;;10357829;28;20056;-64
2021/10/26 03:23:16;;;;;;;18.00;9.77;;;;;;;;;;10359085;28;20477;-63
2021/10/26 03:28:15;;;;;;;13.38;7.85;;;;;;;;;;10340044;28;20504;-64
2021/10/26 03:33:13;;;;;;;12.40;7.75;;;;;;;;;;10358476;28;20045;-64
2021/10/26 03:38:23;;;;;;;8.75;7.65;;;;;;;;;;10357304;28;20072;-64
2021/10/26 03:43:22;;;;;;;7.63;6.85;;;;;;;;;;10356240;28;20040;-64
2021/10/26 03:48:21;;;;;;;11.93;7.70;;;;;;;;;;10358505;28;20079;-64
2021/10/26 03:53:21;;;;;;;10.00;7.05;;;;;;;;;;10343381;28;20150;-64
2021/10/26 03:58:21;;;;;;;7.15;6.45;;;;;;;;;;10357640;28;20067;-64
2021/10/26 04:03:24;;;;;;;9.07;7.20;;;;;;;;;;10355359;28;20063;-64
2021/10/26 04:08:27;;;;;;;8.25;6.55;;;;;;;;;;10357496;28;20090;-64
2021/10/26 04:13:28;;;;;;;9.07;6.90;;;;;;;;;;10357109;28;20516;-63
2021/10/26 04:18:28;;;;;;;18.05;7.30;;;;;;;;;;10355230;28;20102;-63
2021/10/26 04:23:26;;;;;;;10.43;6.90;;;;;;;;;;10355371;28;20040;-64
2021/10/26 04:28:25;;;;;;;8.48;6.93;;;;;;;;;;10349633;28;20072;-64
2021/10/26 04:33:24;;;;;;;7.18;6.45;;;;;;;;;;10351206;28;20082;-63
2021/10/26 04:38:23;;;;;;;8.25;6.90;;;;;;;;;;10350642;28;20083;-64
2021/10/26 04:43:22;;;;;;;16.63;11.07;;;;;;;;;;10343200;28;20078;-63
2021/10/26 04:48:22;;;;;;;15.02;9.60;;;;;;;;;;10351583;28;20087;-64
2021/10/26 04:53:22;;;;;;;9.63;7.32;;;;;;;;;;10355621;28;20036;-62
2021/10/26 04:58:28;;;;;;;7.97;6.88;;;;;;;;;;10351092;28;20103;-65
2021/10/26 05:03:28;;;;;;;10.50;6.95;;;;;;;;;;10347987;28;20547;-62
2021/10/26 05:08:28;;;;;;;13.57;9.15;;;;;;;;;;10348330;28;20090;-63
2021/10/26 05:13:29;;;;;;;35.20;21.75;;;;;;;;;;10348292;28;20076;-62
2021/10/26 05:18:49;;;;;;;11.90;10.40;;;;;;;;;;10349622;28;20080;-63
2021/10/26 05:24:18;;;;;;;15.43;12.82;;;;;;;;;;10344165;28;20094;-64
2021/10/26 05:29:25;;;;;;;10.90;7.88;;;;;;;;;;10352486;28;20090;-64
2021/10/26 05:34:24;;;;;;;7.57;6.43;;;;;;;;;;10351195;28;20493;-64
2021/10/26 05:39:24;;;;;;;8.70;7.05;;;;;;;;;;10351474;28;20036;-64
2021/10/26 05:44:23;;;;;;;8.25;6.47;;;;;;;;;;10352190;28;20055;-64
2021/10/26 05:49:21;;;;;;;10.25;7.15;;;;;;;;;;10352099;28;20063;-64
2021/10/26 05:54:20;;;;;;;11.57;7.70;;;;;;;;;;10352014;28;20040;-64
2021/10/26 05:59:20;;;;;;;10.43;7.63;;;;;;;;;;10352047;28;20520;-64
2021/10/26 06:04:18;;;;;;;6.72;5.97;;;;;;;;;;10354048;28;20090;-64
2021/10/26 06:09:18;;;;;;;45.38;32.83;;;;;;;;;;10349866;28;20079;-64
2021/10/26 06:14:19;;;;;;;29.52;21.10;;;;;;;;;;10330783;28;20055;-64
2021/10/26 06:19:20;;;;;;;34.83;23.08;;;;;;;;;;10350136;28;20456;-62
2021/10/26 06:24:19;;;;;;;36.28;24.05;;;;;;;;;;10352096;28;20523;-63
2021/10/26 06:29:17;;;;;;;43.45;27.42;;;;;;;;;;10350128;28;20121;-63
2021/10/26 06:34:37;;;;;;;42.17;27.38;;;;;;;;;;10352609;28;20051;-64
2021/10/26 06:39:35;;;;;;;50.53;31.33;;;;;;;;;;10351299;28;20048;-64
2021/10/26 06:44:34;;;;;;;48.95;31.05;;;;;;;;;;10353248;28;20044;-64
2021/10/26 06:49:52;;;;;;;23.50;17.92;;;;;;;;;;10360738;28;20072;-65
2021/10/26 06:55:09;;;;;;;22.13;16.23;;;;;;;;;;10361362;28;20056;-65
2021/10/26 07:00:26;;;;;;;18.45;13.50;;;;;;;;;;10368782;28;20083;-65
2021/10/26 07:05:44;;;;;;;15.65;9.65;;;;;;;;;;10368829;28;20044;-64
2021/10/26 07:11:04;;;;;;;15.43;9.25;;;;;;;;;;10347584;28;20078;-64
2021/10/26 07:16:02;;;;;;;31.55;16.35;;;;;;;;;;10355898;28;20084;-64
2021/10/26 07:21:02;;;;;;;9.23;7.47;;;;;;;;;;10357968;28;20072;-63
2021/10/26 07:26:36;;;;;;;13.80;7.55;;;;;;;;;;10358103;28;20086;-64
2021/10/26 07:31:36;;;;;;;12.90;9.63;;;;;;;;;;10357342;28;20075;-64
2021/10/26 07:36:41;;;;;;;12.70;8.70;;;;;;;;;;10357189;28;20064;-63
2021/10/26 07:41:40;;;;;;;18.27;6.80;;;;;;;;;;10356898;28;20047;-63
2021/10/26 07:46:59;;;;;;;13.90;7.60;;;;;;;;;;10363207;28;20063;-64
2021/10/26 07:52:01;;;;;;;16.10;10.35;;;;;;;;;;10356233;28;20153;-63
2021/10/26 07:56:59;;;;;;;11.13;7.18;;;;;;;;;;10355396;28;20484;-64
2021/10/26 08:01:58;;;;;;;11.85;7.13;;;;;;;;;;10355532;28;20051;-65
2021/10/26 08:07:17;;;;;;;10.85;7.30;;;;;;;;;;10361204;28;20051;-64
2021/10/26 08:12:18;;;;;;;8.70;6.50;;;;;;;;;;10354858;28;20048;-63
2021/10/26 08:17:16;;;;;;;22.88;16.88;;;;;;;;;;10356131;28;20082;-64
2021/10/26 08:22:17;;;;;;;12.68;9.48;;;;;;;;;;10355340;28;20060;-65
2021/10/26 08:27:21;;;;;;;13.73;9.57;;;;;;;;;;10355281;28;20051;-64
2021/10/26 08:37:51;;;;;;;10.73;6.75;;;;;;;;;;10350993;28;20052;-63
2021/10/26 08:42:54;;;;;;;11.98;8.40;;;;;;;;;;10354402;28;20067;-63
2021/10/26 08:47:53;;;;;;;10.55;7.13;;;;;;;;;;10356300;28;20043;-64
2021/10/26 08:53:21;;;;;;;14.57;7.82;;;;;;;;;;10355332;28;20066;-65
2021/10/26 08:58:44;;;;;;;13.50;7.78;;;;;;;;;;10355303;28;20532;-63
2021/10/26 09:03:49;;;;;;;13.25;7.20;;;;;;;;;;10351694;28;20508;-65
2021/10/26 09:08:50;;;;;;;12.13;7.47;;;;;;;;;;10352841;28;20087;-64
2021/10/26 09:19:27;;;;;;;9.27;8.10;;;;;;;;;;10360040;28;20079;-64
2021/10/26 09:24:28;;;;;;;14.70;9.65;;;;;;;;;;10376697;28;20209;-63
2021/10/26 09:29:41;;;;;;;9.13;6.35;;;;;;;;;;10376228;28;20083;-64
2021/10/26 09:34:41;;;;;;;20.20;13.32;;;;;;;;;;10393643;28;20050;-63
2021/10/26 09:39:39;;;;;;;16.83;11.35;;;;;;;;;;10394748;28;20487;-64
2021/10/26 09:44:44;;;;;;;11.43;6.65;;;;;;;;;;10394223;28;20063;-63
2021/10/26 09:49:45;;;;;;;8.60;6.20;;;;;;;;;;10394525;28;20075;-64
2021/10/26 09:54:44;;;;;;;5.30;4.75;;;;;;;;;;10393489;28;20344;-64
2021/10/26 09:59:49;;;;;;;9.35;7.65;;;;;;;;;;10393636;28;20067;-63
2021/10/26 10:04:48;;;;;;;;;;;;;;;;;;10393383;28;20467;-64
2021/10/26 10:09:53;;;;;;;13.98;7.13;;;;;;;;;;10394391;28;19967;-64
2021/10/26 10:14:54;;;;;;;9.30;7.88;;;;;;;;;;10394808;28;20643;-63
2021/10/26 10:19:53;;;;;;;6.80;6.00;;;;;;;;;;10397050;28;20093;-63
2021/10/26 10:24:55;;;;;;;14.88;10.80;;;;;;;;;;10402437;28;20063;-63
2021/10/26 10:29:55;;;;;;;37.45;21.73;;;;;;;;;;10401522;28;20063;-65
2021/10/26 10:34:54;;;;;;;40.10;21.38;;;;;;;;;;10401896;28;20063;-63
2021/10/26 10:39:55;;;;;;;23.58;14.27;;;;;;;;;;10398269;28;20070;-64
2021/10/26 10:44:56;;;;;;;29.52;17.67;;;;;;;;;;10397843;28;20461;-64
2021/10/26 10:49:54;;;;;;;13.45;9.32;;;;;;;;;;10402156;28;20476;-64
2021/10/26 10:54:54;;;;;;;16.38;10.57;;;;;;;;;;10399932;28;20059;-64
2021/10/26 10:59:53;;;;;;;12.32;9.95;;;;;;;;;;10400764;28;20071;-64
2021/10/26 11:04:54;;;;;;;8.98;6.43;;;;;;;;;;10401377;28;20062;-64
2021/10/26 11:09:52;;;;;;;11.10;5.80;;;;;;;;;;10399884;28;20133;-64
2021/10/26 11:14:54;;;;;;;30.95;20.05;;;;;;;;;;10400580;28;20078;-64
2021/10/26 11:19:57;;;;;;;7.35;5.82;;;;;;;;;;10397079;28;20067;-64
2021/10/26 11:25:14;;;;;;;7.63;5.00;;;;;;;;;;10381864;28;20564;-63
2021/10/26 11:30:27;;;;;;;7.57;5.80;;;;;;;;;;10398633;28;20075;-63
2021/10/26 11:35:40;;;;;;;9.73;5.20;;;;;;;;;;10398410;28;20051;-64
2021/10/26 11:40:39;;;;;;;7.50;5.60;;;;;;;;;;10399513;28;20079;-65
2021/10/26 11:45:37;;;;;;;8.10;4.85;;;;;;;;;;10397308;28;20059;-65
2021/10/26 11:50:37;;;;;;;7.78;5.82;;;;;;;;;;10399824;28;20083;-65
2021/10/26 11:55:35;;;;;;;6.60;5.22;;;;;;;;;;10399869;28;20070;-65
2021/10/26 12:00:34;;;;;;;11.85;7.43;;;;;;;;;;10399356;28;20063;-65
2021/10/26 12:05:33;;;;;;;7.15;5.93;;;;;;;;;;10379871;28;20046;-64
2021/10/26 12:10:33;;;;;;;10.55;5.60;;;;;;;;;;10397757;28;20071;-64
2021/10/26 12:15:32;;;;;;;7.75;4.65;;;;;;;;;;10379224;28;20079;-64
2021/10/26 12:20:30;;;;;;;5.82;5.03;;;;;;;;;;10398742;28;20070;-64
2021/10/26 12:25:32;;;;;;;7.75;5.38;;;;;;;;;;10379315;28;20086;-65
2021/10/26 12:30:35;;;;;;;9.48;5.38;;;;;;;;;;10379086;28;20504;-66
2021/10/26 12:35:42;;;;;;;9.65;6.20;;;;;;;;;;10398117;28;20066;-64
2021/10/26 12:40:42;;;;;;;8.98;4.47;;;;;;;;;;10396822;28;20075;-64
2021/10/26 12:45:42;;;;;;;10.65;6.18;;;;;;;;;;10377419;28;20043;-64
2021/10/26 12:50:44;;;;;;;10.63;5.65;;;;;;;;;;10397393;28;20063;-64
2021/10/26 12:55:43;;;;;;;10.60;5.90;;;;;;;;;;10397174;28;20067;-64
2021/10/26 13:00:48;;;;;;;12.98;8.65;;;;;;;;;;10395998;28;20532;-64
2021/10/26 13:05:51;;;;;;;11.98;9.90;;;;;;;;;;10377908;28;20040;-64
2021/10/26 13:10:49;;;;;;;38.33;22.15;;;;;;;;;;10396910;28;20449;-65
2021/10/26 13:15:50;;;;;;;8.65;3.55;;;;;;;;;;10395570;28;20384;-65
2021/10/26 13:20:51;;;;;;;13.80;3.60;;;;;;;;;;10396624;28;20068;-64
2021/10/26 13:25:52;;;;;;;5.90;3.08;;;;;;;;;;10392421;28;20075;-64
2021/10/26 13:30:55;;;;;;;6.55;3.35;;;;;;;;;;10396430;28;20131;-63
2021/10/26 13:35:53;;;;;;;7.38;4.18;;;;;;;;;;10395302;28;20072;-64
2021/10/26 13:40:52;;;;;;;7.90;3.88;;;;;;;;;;10395428;28;20488;-64
2021/10/26 13:45:51;;;;;;;5.22;3.08;;;;;;;;;;10392787;28;20067;-64
2021/10/26 13:50:50;;;;;;;4.47;3.17;;;;;;;;;;10393505;28;20078;-64
2021/10/26 13:55:52;;;;;;;6.28;3.20;;;;;;;;;;10393824;28;20578;-64
2021/10/26 14:00:52;;;;;;;5.57;3.35;;;;;;;;;;10395582;28;20035;-66
2021/10/26 14:05:52;;;;;;;7.45;4.20;;;;;;;;;;10393063;28;20070;-64
2021/10/26 14:10:51;;;;;;;8.65;3.80;;;;;;;;;;10395242;28;20063;-64
2021/10/26 14:15:49;;;;;;;7.20;4.40;;;;;;;;;;10394930;28;20082;-64
2021/10/26 14:20:50;;;;;;;4.18;3.78;;;;;;;;;;10394119;28;20063;-65
2021/10/26 14:25:52;;;;;;;6.45;3.92;;;;;;;;;;10395316;28;20055;-64
2021/10/26 14:30:51;;;;;;;4.78;3.88;;;;;;;;;;10394118;28;20158;-64
2021/10/26 14:35:52;;;;;;;7.88;4.60;;;;;;;;;;10395082;28;20067;-65
2021/10/26 14:41:05;;;;;;;8.57;5.80;;;;;;;;;;10394300;28;20075;-66
2021/10/26 14:56:38;;;;;;;7.97;5.47;;;;;;;;;;10374917;28;20068;-65
2021/10/26 15:01:37;;;;;;;7.50;5.68;;;;;;;;;;10392744;28;20059;-65
2021/10/26 15:06:36;;;;;;;8.70;7.35;;;;;;;;;;10396768;28;20071;-63
2021/10/26 15:11:37;;;;;;;21.23;15.13;;;;;;;;;;10400928;28;20071;-65
2021/10/26 15:16:38;;;;;;;16.75;12.82;;;;;;;;;;10400797;28;20523;-65
2021/10/26 15:21:41;;;;;;;13.32;9.05;;;;;;;;;;10399411;28;20456;-65
2021/10/26 15:37:13;;;;;;;15.48;12.05;;;;;;;;;;10399903;28;20071;-65
2021/10/26 15:42:11;;;;;;;28.13;23.08;;;;;;;;;;10399638;28;20063;-64
2021/10/26 15:47:11;;;;;;;20.85;15.90;;;;;;;;;;10379831;28;20058;-64
2021/10/26 15:52:10;;;;;;;24.13;17.33;;;;;;;;;;10396721;28;20075;-64
2021/10/26 15:57:11;;;;;;;22.10;16.27;;;;;;;;;;10399185;28;20059;-64
2021/10/26 16:02:11;;;;;;;24.40;18.85;;;;;;;;;;10378032;28;20043;-66
2021/10/26 16:07:10;;;;;;;18.42;14.02;;;;;;;;;;10398787;28;20072;-65
2021/10/26 16:12:11;;;;;;;20.13;14.63;;;;;;;;;;10398337;28;20067;-65
2021/10/26 16:17:11;;;;;;;22.58;17.33;;;;;;;;;;10395605;28;20499;-64
2021/10/26 16:22:09;;;;;;;23.77;20.17;;;;;;;;;;10397696;28;20071;-64
2021/10/26 16:27:08;;;;;;;15.38;12.63;;;;;;;;;;10396778;28;20067;-64
2021/10/26 16:32:09;;;;;;;22.00;15.57;;;;;;;;;;10397107;28;20475;-64
2021/10/26 16:37:08;;;;;;;21.45;15.82;;;;;;;;;;10397060;28;20036;-64
2021/10/26 16:42:18;;;;;;;15.70;11.23;;;;;;;;;;10396797;28;20469;-64
2021/10/26 16:47:17;;;;;;;25.23;12.93;;;;;;;;;;10394527;28;20508;-64
2021/10/26 16:52:17;;;;;;;18.30;13.80;;;;;;;;;;10396847;28;20090;-64
2021/10/26 16:57:16;;;;;;;18.92;13.25;;;;;;;;;;10396688;28;20484;-64
2021/10/26 17:02:16;;;;;;;20.58;13.52;;;;;;;;;;10388475;28;20059;-64
2021/10/26 17:07:15;;;;;;;18.88;11.43;;;;;;;;;;10386030;28;20074;-64
2021/10/26 17:12:15;;;;;;;14.77;9.75;;;;;;;;;;10382185;28;20067;-63
2021/10/26 17:17:13;;;;;;;16.40;9.05;;;;;;;;;;10393716;28;20079;-64
2021/10/26 17:22:12;;;;;;;11.90;7.95;;;;;;;;;;10389544;28;20074;-64
2021/10/26 17:27:10;;;;;;;13.10;5.68;;;;;;;;;;10390431;28;20110;-64
2021/10/26 17:32:10;;;;;;;9.63;6.82;;;;;;;;;;10389731;28;20075;-64
2021/10/26 17:37:09;;;;;;;11.13;7.50;;;;;;;;;;10384703;28;20059;-64
2021/10/26 17:42:09;;;;;;;10.18;7.97;;;;;;;;;;10392557;28;20074;-64
2021/10/26 17:47:07;;;;;;;14.80;11.25;;;;;;;;;;10392900;28;20067;-64
2021/10/26 17:52:07;;;;;;;9.32;7.30;;;;;;;;;;10390708;28;20443;-65
2021/10/26 17:57:06;;;;;;;9.13;5.70;;;;;;;;;;10373773;28;20072;-64
2021/10/26 18:02:05;;;;;;;10.98;7.10;;;;;;;;;;10383190;28;20070;-65
2021/10/26 18:07:03;;;;;;;11.88;9.60;;;;;;;;;;10376517;28;20492;-66
2021/10/26 18:12:05;;;;;;;15.32;9.90;;;;;;;;;;10385984;28;20518;-62
2021/10/26 18:17:03;;;;;;;12.00;9.18;;;;;;;;;;10386135;28;20086;-63
2021/10/26 18:22:02;;;;;;;13.15;8.98;;;;;;;;;;10382998;28;20067;-65
2021/10/26 18:27:01;;;;;;;10.65;8.05;;;;;;;;;;10386217;28;20062;-64
2021/10/26 18:32:00;;;;;;;11.68;7.40;;;;;;;;;;10388573;28;20059;-64
2021/10/26 18:36:59;;;;;;;8.00;5.97;;;;;;;;;;10389437;28;20433;-63
2021/10/26 18:41:59;;;;;;;9.27;5.65;;;;;;;;;;10393467;28;20055;-63
2021/10/26 18:46:57;;;;;;;8.63;5.70;;;;;;;;;;10402446;28;20060;-62
2021/10/26 18:51:57;;;;;;;6.57;5.80;;;;;;;;;;10402168;28;20065;-63
2021/10/26 18:56:56;;;;;;;8.30;4.88;;;;;;;;;;10401664;28;20058;-63
2021/10/26 19:01:54;;;;;;;15.52;10.93;;;;;;;;;;10398978;28;20031;-65
2021/10/26 19:06:55;;;;;;;9.10;6.90;;;;;;;;;;10392900;28;20169;-63
2021/10/26 19:11:56;;;;;;;8.75;6.30;;;;;;;;;;10391799;28;20072;-64
2021/10/26 19:16:55;;;;;;;8.88;7.10;;;;;;;;;;10372952;28;20528;-64
2021/10/26 19:21:55;;;;;;;11.98;8.13;;;;;;;;;;10401120;28;20044;-63
2021/10/26 19:26:54;;;;;;;10.02;6.85;;;;;;;;;;10398574;28;20204;-63
2021/10/26 19:31:54;;;;;;;10.32;7.13;;;;;;;;;;10397727;28;20082;-63
2021/10/26 19:36:52;;;;;;;9.60;6.25;;;;;;;;;;10400729;28;20168;-64
2021/10/26 19:41:51;;;;;;;10.90;6.32;;;;;;;;;;10391844;28;20067;-64
2021/10/26 19:46:50;;;;;;;9.18;6.53;;;;;;;;;;10391025;28;20076;-63
2021/10/26 19:51:50;;;;;;;9.15;6.97;;;;;;;;;;10390905;28;20098;-65
2021/10/26 19:56:49;;;;;;;11.50;6.70;;;;;;;;;;10398173;28;20071;-64
2021/10/26 20:01:49;;;;;;;9.13;6.95;;;;;;;;;;10397687;28;20063;-64
2021/10/26 20:06:47;;;;;;;10.75;8.05;;;;;;;;;;10392580;28;20060;-64
2021/10/26 20:11:48;;;;;;;11.27;9.13;;;;;;;;;;10390435;28;20067;-63
2021/10/26 20:16:47;;;;;;;20.83;13.88;;;;;;;;;;10393802;28;20083;-63
2021/10/26 20:21:51;;;;;;;30.00;20.50;;;;;;;;;;10394503;28;20074;-64
2021/10/26 20:26:57;;;;;;;24.67;18.67;;;;;;;;;;10397710;28;20065;-64
2021/10/26 20:31:56;;;;;;;21.52;17.48;;;;;;;;;;10400034;28;20427;-64
2021/10/26 20:36:54;;;;;;;33.70;20.73;;;;;;;;;;10399385;28;20074;-64
2021/10/26 20:41:54;;;;;;;28.05;17.27;;;;;;;;;;10394253;28;20068;-63
2021/10/26 20:46:52;;;;;;;68.90;45.42;;;;;;;;;;10392561;28;20059;-64
2021/10/26 20:51:53;;;;;;;56.35;39.92;;;;;;;;;;10393352;28;20459;-64
2021/10/26 20:56:51;;;;;;;38.83;22.95;;;;;;;;;;10392850;28;20075;-66
2021/10/26 21:01:51;;;;;;;35.78;22.73;;;;;;;;;;10390774;28;20073;-64
2021/10/26 21:06:50;;;;;;;21.67;15.77;;;;;;;;;;10394668;28;20074;-63
2021/10/26 21:11:50;;;;;;;33.53;17.15;;;;;;;;;;10388400;28;20508;-64
2021/10/26 21:16:48;;;;;;;20.85;14.60;;;;;;;;;;10394597;28;20364;-64
2021/10/26 21:21:48;;;;;;;15.18;10.48;;;;;;;;;;10394671;28;20059;-64
2021/10/26 21:26:50;;;;;;;11.73;9.75;;;;;;;;;;10393068;28;20059;-64
2021/10/26 21:31:48;;;;;;;12.52;8.88;;;;;;;;;;10396371;28;20063;-63
2021/10/26 21:36:54;;;;;;;7.60;6.15;;;;;;;;;;10397506;28;20090;-65
2021/10/26 21:41:52;;;;;;;6.88;6.07;;;;;;;;;;10390613;28;20059;-63
2021/10/26 21:46:51;;;;;;;8.23;6.97;;;;;;;;;;10391275;28;20060;-63
2021/10/26 21:51:51;;;;;;;19.73;14.55;;;;;;;;;;10397401;28;20067;-64
2021/10/26 21:56:49;;;;;;;22.67;16.00;;;;;;;;;;10377919;28;20071;-63
2021/10/26 22:01:48;;;;;;;39.10;31.08;;;;;;;;;;10395402;28;20073;-63
2021/10/26 22:06:48;;;;;;;25.90;15.90;;;;;;;;;;10397083;28;20493;-64
2021/10/26 22:11:49;;;;;;;25.25;17.33;;;;;;;;;;10396981;28;20035;-66
2021/10/26 22:16:49;;;;;;;20.52;15.93;;;;;;;;;;10401263;28;20072;-64
2021/10/26 22:21:48;;;;;;;23.13;17.45;;;;;;;;;;10386425;28;20047;-65
2021/10/26 22:26:46;;;;;;;28.05;20.85;;;;;;;;;;10404950;28;20062;-64
2021/10/26 22:31:46;;;;;;;31.73;20.00;;;;;;;;;;10404864;28;20605;-63
2021/10/26 22:36:44;;;;;;;24.80;16.58;;;;;;;;;;10402989;28;20079;-62
2021/10/26 22:41:42;;;;;;;18.40;14.65;;;;;;;;;;10403844;28;20063;-64
2021/10/26 22:46:41;;;;;;;18.40;13.70;;;;;;;;;;10382101;28;20372;-64
2021/10/26 22:51:40;;;;;;;18.48;13.82;;;;;;;;;;10403115;28;20422;-62
2021/10/26 22:56:39;;;;;;;17.05;12.52;;;;;;;;;;10403790;28;20475;-63
2021/10/26 23:01:37;;;;;;;14.02;11.18;;;;;;;;;;10403759;28;20059;-66
2021/10/26 23:06:35;;;;;;;14.70;10.98;;;;;;;;;;10402584;28;20440;-62
2021/10/26 23:11:35;;;;;;;16.83;11.98;;;;;;;;;;10403291;28;20071;-64
2021/10/26 23:16:33;;;;;;;10.27;9.00;;;;;;;;;;10402559;28;20079;-63
2021/10/26 23:21:32;;;;;;;9.90;7.93;;;;;;;;;;10402341;28;20089;-63
2021/10/26 23:26:30;;;;;;;14.90;10.43;;;;;;;;;;10402349;28;20086;-64
2021/10/26 23:31:30;;;;;;;11.30;8.40;;;;;;;;;;10402130;28;20078;-62
2021/10/26 23:36:28;;;;;;;9.60;7.78;;;;;;;;;;10401486;28;20071;-63
2021/10/26 23:41:26;;;;;;;12.73;7.88;;;;;;;;;;10379619;28;20047;-63
2021/10/26 23:46:25;;;;;;;12.85;8.10;;;;;;;;;;10400770;28;20050;-63
2021/10/26 23:51:24;;;;;;;12.32;8.35;;;;;;;;;;10401530;28;20055;-65
2021/10/26 23:56:23;;;;;;;10.73;8.20;;;;;;;;;;10381767;28;20067;-63
